createdAt,value
2023-05-22T00:02:06.701Z,10.38
2023-05-22T00:06:10.096Z,10.65
2023-05-22T00:10:12.213Z,10.45
2023-05-22T00:14:14.271Z,10.27
2023-05-22T00:18:16.577Z,10.55
2023-05-22T00:22:18.649Z,10.35
2023-05-22T00:26:23.157Z,10.77
2023-05-22T00:30:25.301Z,10.10
2023-05-22T00:34:27.501Z,10.90
2023-05-22T00:38:32.659Z,9.75
2023-05-22T00:42:35.039Z,10.73
2023-05-22T00:46:38.053Z,10.18
2023-05-22T00:50:40.374Z,10.75
2023-05-22T00:54:43.443Z,10.68
2023-05-22T00:58:45.831Z,9.55
2023-05-22T01:02:48.160Z,10.30
2023-05-22T01:06:50.471Z,9.90
2023-05-22T01:11:10.422Z,10.57
2023-05-22T01:15:27.396Z,10.48
2023-05-22T01:19:41.614Z,10.73
2023-05-22T01:23:54.186Z,10.13
2023-05-22T01:28:14.248Z,10.10
2023-05-22T01:32:21.879Z,10.48
2023-05-22T01:36:29.752Z,10.68
2023-05-22T01:40:32.183Z,9.98
2023-05-22T01:44:34.257Z,10.43
2023-05-22T01:48:36.375Z,9.85
2023-05-22T01:52:53.773Z,9.77
2023-05-22T01:57:21.875Z,9.82
2023-05-22T02:01:27.414Z,9.77
2023-05-22T02:05:33.353Z,10.60
2023-05-22T02:09:37.273Z,10.85
2023-05-22T02:13:39.907Z,10.00
2023-05-22T02:17:42.513Z,10.13
2023-05-22T02:21:44.881Z,10.00
2023-05-22T02:25:46.920Z,9.85
2023-05-22T02:29:49.035Z,10.77
2023-05-22T02:33:51.158Z,10.13
2023-05-22T02:37:54.052Z,10.65
2023-05-22T02:41:56.632Z,10.90
2023-05-22T02:45:58.732Z,10.55
2023-05-22T02:50:00.882Z,10.43
2023-05-22T02:54:03.293Z,11.10
2023-05-22T02:58:06.738Z,10.43
2023-05-22T03:02:08.813Z,10.55
2023-05-22T03:06:10.893Z,9.95
2023-05-22T03:10:12.944Z,10.82
2023-05-22T03:14:16.051Z,10.95
2023-05-22T03:18:18.178Z,10.45
2023-05-22T03:22:21.434Z,10.70
2023-05-22T03:26:23.542Z,10.40
2023-05-22T03:30:25.620Z,9.90
2023-05-22T03:34:40.379Z,10.73
2023-05-22T03:38:44.823Z,9.82
2023-05-22T03:42:47.033Z,10.48
2023-05-22T03:46:50.012Z,9.38
2023-05-22T03:50:52.133Z,10.52
2023-05-22T03:54:54.200Z,10.48
2023-05-22T03:58:56.261Z,10.00
2023-05-22T04:02:58.818Z,9.68
2023-05-22T04:07:02.657Z,9.60
2023-05-22T04:11:05.507Z,10.65
2023-05-22T04:15:09.119Z,9.82
2023-05-22T04:19:11.313Z,9.55
2023-05-22T04:23:13.539Z,10.30
2023-05-22T04:27:16.091Z,10.43
2023-05-22T04:31:18.509Z,9.75
2023-05-22T04:35:20.652Z,10.60
2023-05-22T04:39:26.154Z,9.90
2023-05-22T04:43:29.830Z,10.00
2023-05-22T04:47:33.790Z,9.80
2023-05-22T04:51:40.777Z,9.93
2023-05-22T04:55:42.978Z,9.60
2023-05-22T04:59:45.578Z,8.50
2023-05-22T05:03:47.751Z,8.48
2023-05-22T05:07:50.430Z,8.80
2023-05-22T05:11:53.049Z,9.13
2023-05-22T05:15:55.504Z,8.80
2023-05-22T05:19:57.690Z,8.80
2023-05-22T05:23:59.741Z,8.50
2023-05-22T05:28:02.001Z,8.73
2023-05-22T05:32:04.981Z,8.77
2023-05-22T05:36:14.651Z,8.98
2023-05-22T05:40:17.063Z,8.35
2023-05-22T05:44:23.934Z,8.45
2023-05-22T05:48:27.077Z,8.40
2023-05-22T05:52:32.522Z,8.80
2023-05-22T05:56:37.571Z,8.68
2023-05-22T06:00:42.338Z,8.63
2023-05-22T06:04:48.276Z,8.43
2023-05-22T06:08:53.197Z,8.30
2023-05-22T06:13:01.990Z,8.60
2023-05-22T06:17:04.133Z,8.15
2023-05-22T06:21:07.411Z,8.25
2023-05-22T06:25:09.996Z,8.27
2023-05-22T06:29:12.146Z,8.02
2023-05-22T06:33:14.682Z,7.90
2023-05-22T06:37:17.761Z,7.82
2023-05-22T06:41:21.297Z,7.68
2023-05-22T06:45:23.473Z,7.05
2023-05-22T06:49:54.957Z,7.15
2023-05-22T06:53:57.742Z,7.80
2023-05-22T06:58:05.092Z,10.48
2023-05-22T07:02:09.955Z,6.85
2023-05-22T07:06:28.586Z,6.60
2023-05-22T07:10:30.794Z,5.78
2023-05-22T07:14:34.334Z,5.97
2023-05-22T07:18:40.009Z,5.60
2023-05-22T07:22:42.112Z,5.90
2023-05-22T07:26:47.512Z,6.15
2023-05-22T07:34:53.691Z,6.38
2023-05-22T07:38:56.050Z,5.43
2023-05-22T07:42:58.222Z,6.47
2023-05-22T07:47:00.498Z,6.20
2023-05-22T07:51:04.687Z,6.63
2023-05-22T07:55:07.890Z,6.22
2023-05-22T07:59:12.352Z,6.43
2023-05-22T08:03:14.591Z,6.22
2023-05-22T08:07:16.729Z,6.20
2023-05-22T08:11:19.006Z,6.60
2023-05-22T08:15:21.094Z,6.55
2023-05-22T08:19:23.528Z,6.07
2023-05-22T08:23:25.664Z,6.22
2023-05-22T08:27:28.057Z,6.03
2023-05-22T08:31:30.222Z,6.35
2023-05-22T08:35:32.352Z,6.00
2023-05-22T08:39:34.433Z,6.72
2023-05-22T08:43:36.580Z,6.28
2023-05-22T08:47:39.980Z,6.50
2023-05-22T08:51:42.417Z,6.22
2023-05-22T08:55:44.996Z,6.63
2023-05-22T08:59:48.325Z,6.40
2023-05-22T09:03:51.670Z,6.85
2023-05-22T09:08:02.695Z,6.55
2023-05-22T09:12:09.696Z,6.22
2023-05-22T09:16:13.150Z,7.10
2023-05-22T09:20:15.738Z,6.70
2023-05-22T09:24:17.982Z,6.45
2023-05-22T09:28:20.477Z,6.55
2023-05-22T09:32:23.544Z,6.72
2023-05-22T09:36:34.959Z,6.65
2023-05-22T09:40:42.116Z,6.60
2023-05-22T09:44:48.629Z,6.82
2023-05-22T09:48:54.319Z,6.80
2023-05-22T09:52:57.344Z,6.75
2023-05-22T09:57:00.672Z,6.40
2023-05-22T10:01:03.738Z,6.60
2023-05-22T10:05:08.176Z,6.35
2023-05-22T10:09:18.786Z,6.40
2023-05-22T10:13:22.069Z,6.35
2023-05-22T10:17:24.829Z,6.65
2023-05-22T10:21:28.863Z,6.50
2023-05-22T10:25:30.953Z,6.45
2023-05-22T10:29:41.187Z,6.10
2023-05-22T10:33:48.776Z,6.70
2023-05-22T10:38:01.921Z,6.45
2023-05-22T10:42:04.201Z,6.35
2023-05-22T10:46:07.195Z,6.50
2023-05-22T10:50:11.835Z,6.00
2023-05-22T10:54:13.908Z,6.70
2023-05-22T10:58:17.202Z,6.55
2023-05-22T11:02:29.375Z,7.10
2023-05-22T11:06:36.268Z,6.97
2023-05-22T11:10:58.992Z,6.40
2023-05-22T11:15:09.436Z,6.35
2023-05-22T11:19:22.746Z,6.95
2023-05-22T11:23:25.725Z,6.55
2023-05-22T11:27:28.964Z,6.35
2023-05-22T11:31:31.291Z,6.10
2023-05-22T11:35:34.343Z,6.60
2023-05-22T11:39:36.548Z,6.68
2023-05-22T11:43:38.788Z,6.28
2023-05-22T11:47:41.937Z,6.93
2023-05-22T11:51:44.525Z,6.53
2023-05-22T11:55:49.306Z,6.78
2023-05-22T11:59:51.745Z,5.90
2023-05-22T12:03:54.911Z,5.90
2023-05-22T12:07:57.210Z,6.43
2023-05-22T12:11:59.789Z,6.63
2023-05-22T12:16:01.946Z,6.60
2023-05-22T12:20:05.199Z,6.78
2023-05-22T12:24:08.037Z,6.25
2023-05-22T12:28:10.106Z,6.45
2023-05-22T12:32:13.043Z,6.18
2023-05-22T12:36:15.200Z,6.50
2023-05-22T12:40:17.426Z,6.50
2023-05-22T12:44:19.546Z,6.57
2023-05-22T12:48:21.658Z,6.72
2023-05-22T12:52:23.710Z,7.10
2023-05-22T12:56:26.089Z,7.05
2023-05-22T13:00:28.140Z,6.85
2023-05-22T13:04:30.212Z,6.65
2023-05-22T13:08:32.455Z,7.00
2023-05-22T13:12:34.648Z,6.25
2023-05-22T13:16:36.780Z,6.28
2023-05-22T13:20:39.221Z,6.75
2023-05-22T13:24:41.265Z,7.10
2023-05-22T13:28:43.356Z,6.75
2023-05-22T13:32:45.462Z,6.35
2023-05-22T13:36:47.602Z,6.20
2023-05-22T13:40:49.756Z,6.20
2023-05-22T13:44:51.807Z,6.05
2023-05-22T13:48:53.849Z,6.50
2023-05-22T13:52:56.488Z,6.05
2023-05-22T13:56:59.886Z,7.22
2023-05-22T14:01:02.007Z,7.50
2023-05-22T14:05:04.268Z,6.70
2023-05-22T14:09:07.257Z,7.28
2023-05-22T14:13:09.276Z,6.85
2023-05-22T14:17:11.316Z,7.28
2023-05-22T14:21:14.517Z,7.28
2023-05-22T14:25:16.576Z,8.30
2023-05-22T14:29:18.687Z,8.00
2023-05-22T14:33:20.740Z,8.02
2023-05-22T14:37:22.761Z,9.05
2023-05-22T14:41:24.792Z,7.78
2023-05-22T14:45:26.825Z,6.25
2023-05-22T14:49:28.861Z,7.13
2023-05-22T14:53:30.986Z,5.00
2023-05-22T14:57:34.486Z,4.10
2023-05-22T15:01:36.672Z,5.22
2023-05-22T15:05:38.897Z,5.38
2023-05-22T15:09:50.090Z,5.28
2023-05-22T15:13:54.170Z,5.28
2023-05-22T15:17:56.353Z,5.80
2023-05-22T15:22:08.852Z,5.25
2023-05-22T15:26:18.018Z,6.25
2023-05-22T15:30:22.107Z,5.53
2023-05-22T15:34:24.242Z,5.72
2023-05-22T15:38:26.284Z,6.10
2023-05-22T15:42:28.494Z,6.35
2023-05-22T15:46:30.585Z,7.32
2023-05-22T15:50:33.781Z,6.47
2023-05-22T15:54:35.828Z,5.55
2023-05-22T15:58:38.062Z,6.10
2023-05-22T16:02:40.196Z,6.05
2023-05-22T16:06:42.577Z,6.10
2023-05-22T16:10:46.963Z,6.15
2023-05-22T16:14:49.649Z,6.10
2023-05-22T16:18:51.783Z,7.10
2023-05-22T16:22:53.834Z,7.05
2023-05-22T16:26:57.872Z,6.20
2023-05-22T16:30:59.919Z,6.53
2023-05-22T16:35:02.033Z,7.20
2023-05-22T16:39:04.367Z,7.75
2023-05-22T16:43:09.787Z,7.28
2023-05-22T16:47:12.453Z,8.20
2023-05-22T16:51:14.586Z,23.77
2023-05-22T16:55:16.800Z,10.18
2023-05-22T16:59:19.608Z,7.72
2023-05-22T17:03:21.860Z,8.73
2023-05-22T17:07:25.305Z,8.02
2023-05-22T17:11:27.541Z,7.75
2023-05-22T17:15:29.648Z,6.57
2023-05-22T17:19:32.227Z,7.10
2023-05-22T17:23:37.135Z,7.40
2023-05-22T17:27:39.416Z,7.45
2023-05-22T17:31:41.549Z,7.10
2023-05-22T17:35:43.696Z,7.43
2023-05-22T17:39:46.165Z,7.72
2023-05-22T17:43:48.317Z,6.38
2023-05-22T17:47:50.369Z,6.40
2023-05-22T17:51:52.605Z,7.20
2023-05-22T17:55:54.656Z,5.70
2023-05-22T17:59:56.856Z,6.15
2023-05-22T18:04:00.522Z,5.47
2023-05-22T18:08:02.699Z,5.95
2023-05-22T18:12:04.995Z,5.50
2023-05-22T18:16:07.159Z,5.22
2023-05-22T18:20:12.035Z,5.35
2023-05-22T18:24:14.964Z,5.63
2023-05-22T18:28:17.053Z,5.68
2023-05-22T18:32:19.085Z,5.97
2023-05-22T18:36:21.601Z,6.60
2023-05-22T18:40:23.710Z,5.75
2023-05-22T18:44:25.765Z,5.63
2023-05-22T18:48:28.299Z,4.85
2023-05-22T18:52:30.813Z,5.32
2023-05-22T18:56:32.893Z,5.63
2023-05-22T19:00:34.950Z,5.30
2023-05-22T19:04:38.185Z,5.95
2023-05-22T19:08:40.519Z,6.07
2023-05-22T19:12:42.577Z,6.00
2023-05-22T19:16:44.832Z,5.13
2023-05-22T19:20:46.897Z,5.88
2023-05-22T19:24:48.960Z,6.10
2023-05-22T19:28:51.050Z,6.43
2023-05-22T19:32:55.931Z,6.70
2023-05-22T19:36:58.124Z,6.10
2023-05-22T19:41:00.472Z,5.97
2023-05-22T19:45:03.384Z,6.65
2023-05-22T19:49:05.457Z,5.97
2023-05-22T19:53:07.705Z,6.03
2023-05-22T19:57:09.752Z,6.20
2023-05-22T20:01:11.835Z,12.25
2023-05-22T20:05:13.914Z,14.27
2023-05-22T20:09:16.178Z,15.05
2023-05-22T20:13:18.210Z,15.07
2023-05-22T20:17:22.479Z,15.77
2023-05-22T20:21:24.803Z,17.33
2023-05-22T20:25:26.927Z,19.40
2023-05-22T20:29:28.987Z,118.35
2023-05-22T20:33:31.075Z,25.13
2023-05-22T20:37:38.128Z,20.85
2023-05-22T20:41:40.262Z,17.15
2023-05-22T20:45:45.714Z,16.75
2023-05-22T20:49:47.975Z,16.38
2023-05-22T20:53:52.369Z,16.20
2023-05-22T20:57:54.468Z,19.15
2023-05-22T21:01:57.099Z,21.58
2023-05-22T21:05:59.222Z,24.17
2023-05-22T21:10:01.380Z,28.70
2023-05-22T21:14:03.462Z,30.83
2023-05-22T21:18:05.969Z,34.70
2023-05-22T21:22:08.870Z,37.90
2023-05-22T21:26:11.006Z,41.97
2023-05-22T21:30:14.885Z,41.15
2023-05-22T21:34:16.958Z,40.58
2023-05-22T21:38:18.998Z,41.08
2023-05-22T21:42:21.399Z,42.20
2023-05-22T21:46:23.730Z,42.80
2023-05-22T21:50:25.896Z,43.13
2023-05-22T21:54:28.150Z,42.30
2023-05-22T21:58:30.195Z,42.80
2023-05-22T22:02:32.333Z,43.80
2023-05-22T22:06:35.592Z,43.42
2023-05-22T22:10:37.817Z,41.83
2023-05-22T22:14:39.935Z,41.92
2023-05-22T22:18:42.183Z,41.67
2023-05-22T22:22:44.262Z,41.58
2023-05-22T22:26:47.784Z,42.35
2023-05-22T22:30:49.959Z,41.20
2023-05-22T22:34:53.774Z,40.60
2023-05-22T22:38:56.105Z,42.78
2023-05-22T22:42:58.146Z,42.65
2023-05-22T22:47:04.584Z,44.72
2023-05-22T22:51:06.727Z,44.50
2023-05-22T22:55:11.000Z,44.65
2023-05-22T22:59:13.199Z,43.47
2023-05-22T23:03:15.248Z,43.38
2023-05-22T23:07:17.340Z,42.53
2023-05-22T23:11:19.506Z,41.13
2023-05-22T23:15:21.717Z,39.22
2023-05-22T23:19:24.047Z,37.40
2023-05-22T23:23:27.873Z,35.58
2023-05-22T23:27:30.026Z,33.30
2023-05-22T23:31:32.119Z,32.42
2023-05-22T23:35:34.405Z,35.67
2023-05-22T23:39:36.524Z,36.45
2023-05-22T23:43:38.614Z,38.15
2023-05-22T23:47:40.744Z,38.58
2023-05-22T23:51:42.822Z,37.75
2023-05-22T23:55:44.972Z,40.20
2023-05-22T23:59:47.059Z,33.95
